Time;durP1;ratioP1;P1;durP2;ratioP2;P2;SDS_P1;SDS_P2;PMS_P1;PMS_P2;Temp;Humidity;BMP_temperature;BMP_pressure;BME280_temperature;BME280_humidity;BME280_pressure;Samples;Min_cycle;Max_cycle;Signal;HPM_P1;HPM_P2
2023/02/19 00:01:30;;;;;;;10.13;2.87;;;3.30;99.90;;;;;;5032831;28;20188;-82
2023/02/19 00:04:01;;;;;;;2.50;2.10;;;3.40;99.90;;;;;;5032808;28;20290;-82
2023/02/19 00:06:28;;;;;;;3.33;2.53;;;3.40;99.90;;;;;;5032898;28;20180;-82
2023/02/19 00:08:54;;;;;;;2.47;2.20;;;3.40;99.90;;;;;;5032747;28;20253;-82
2023/02/19 00:11:22;;;;;;;4.33;2.73;;;3.40;99.90;;;;;;5034384;28;20200;-82
2023/02/19 00:13:50;;;;;;;6.90;4.17;;;3.40;99.90;;;;;;5018449;28;20184;-82
2023/02/19 00:16:17;;;;;;;6.37;3.53;;;3.30;99.90;;;;;;5036576;28;20187;-81
2023/02/19 00:18:43;;;;;;;3.53;2.03;;;3.30;99.90;;;;;;5036156;28;20181;-82
2023/02/19 00:21:08;;;;;;;6.73;3.70;;;3.30;99.90;;;;;;5018743;28;20192;-82
2023/02/19 00:23:34;;;;;;;3.13;2.23;;;3.30;99.90;;;;;;5036132;28;20641;-82
2023/02/19 00:26:05;;;;;;;3.40;2.63;;;3.30;99.90;;;;;;5033909;28;20751;-82
2023/02/19 00:28:30;;;;;;;3.40;2.67;;;3.20;99.90;;;;;;5029629;28;20215;-82
2023/02/19 00:31:10;;;;;;;3.67;2.77;;;3.30;99.90;;;;;;5017733;28;20346;-81
2023/02/19 00:33:35;;;;;;;6.70;3.90;;;3.30;99.90;;;;;;5014535;28;20184;-82
2023/02/19 00:36:03;;;;;;;6.30;3.43;;;3.30;99.90;;;;;;4981650;28;20187;-82
2023/02/19 00:38:29;;;;;;;5.67;3.17;;;3.30;99.90;;;;;;5015676;28;20200;-82
2023/02/19 00:40:55;;;;;;;9.03;3.73;;;3.40;99.90;;;;;;5000250;28;20192;-82
2023/02/19 00:43:21;;;;;;;13.10;4.97;;;3.40;99.90;;;;;;5034354;28;20271;-82
2023/02/19 00:45:46;;;;;;;3.60;2.87;;;3.30;99.90;;;;;;5034981;28;20601;-82
2023/02/19 00:48:12;;;;;;;3.77;2.57;;;3.30;99.90;;;;;;5034705;28;20211;-82
2023/02/19 00:50:38;;;;;;;3.60;2.37;;;3.30;99.90;;;;;;5016976;28;20189;-82
2023/02/19 00:53:03;;;;;;;7.90;3.67;;;3.30;99.90;;;;;;5000901;28;20238;-81
2023/02/19 00:55:29;;;;;;;4.83;2.73;;;3.30;99.90;;;;;;5034817;28;20259;-83
2023/02/19 00:57:54;;;;;;;3.43;2.60;;;3.30;99.90;;;;;;5015435;28;20668;-82
2023/02/19 01:00:20;;;;;;;4.50;3.00;;;3.30;99.90;;;;;;5017113;28;20199;-81
2023/02/19 01:02:46;;;;;;;4.93;2.63;;;3.30;99.90;;;;;;5034829;28;20181;-82
2023/02/19 01:05:11;;;;;;;3.97;1.93;;;3.30;99.90;;;;;;5016900;28;20180;-82
2023/02/19 01:07:37;;;;;;;3.83;2.67;;;3.30;99.90;;;;;;5000142;28;20211;-83
2023/02/19 01:10:04;;;;;;;7.00;2.83;;;3.30;99.90;;;;;;5034711;28;20184;-82
2023/02/19 01:12:30;;;;;;;4.63;2.93;;;3.30;99.90;;;;;;5014987;28;20262;-81
2023/02/19 01:14:56;;;;;;;2.13;1.93;;;3.30;99.90;;;;;;5016542;28;20614;-82
2023/02/19 01:17:22;;;;;;;6.23;2.90;;;3.30;99.90;;;;;;5000621;28;20184;-82
2023/02/19 01:19:47;;;;;;;2.17;1.97;;;3.30;99.90;;;;;;5034656;28;20203;-82
2023/02/19 01:22:13;;;;;;;2.73;2.13;;;3.30;99.90;;;;;;4998676;28;20188;-82
2023/02/19 01:24:39;;;;;;;1.57;1.23;;;3.30;99.90;;;;;;5033904;28;20250;-83
2023/02/19 01:27:05;;;;;;;4.33;2.87;;;3.30;99.90;;;;;;5032762;28;20192;-82
2023/02/19 01:29:30;;;;;;;2.53;1.80;;;3.30;99.90;;;;;;5016669;28;20193;-82
2023/02/19 01:31:56;;;;;;;2.63;2.13;;;3.30;99.90;;;;;;5016436;28;20195;-82
2023/02/19 01:34:22;;;;;;;2.87;2.10;;;3.30;99.90;;;;;;5017589;28;20181;-82
2023/02/19 01:36:47;;;;;;;3.73;2.43;;;3.30;99.90;;;;;;5016935;28;20185;-83
2023/02/19 01:39:13;;;;;;;2.70;1.90;;;3.30;99.90;;;;;;5017549;28;20220;-83
2023/02/19 01:41:40;;;;;;;5.97;2.77;;;3.20;99.90;;;;;;5033147;28;20684;-82
2023/02/19 01:44:07;;;;;;;3.97;2.40;;;3.20;99.90;;;;;;5002025;28;20303;-83
2023/02/19 01:46:35;;;;;;;1.30;1.20;;;3.20;99.90;;;;;;5022689;28;20222;-83
2023/02/19 01:49:14;;;;;;;1.67;1.57;;;3.20;99.90;;;;;;5016683;28;20319;-82
2023/02/19 01:51:46;;;;;;;2.10;1.80;;;3.20;99.90;;;;;;5034760;28;20184;-83
2023/02/19 01:54:14;;;;;;;1.47;1.37;;;3.20;99.90;;;;;;5034910;28;20686;-82
2023/02/19 01:56:42;;;;;;;1.73;1.63;;;3.20;99.90;;;;;;5015651;28;20180;-83
2023/02/19 01:59:08;;;;;;;2.60;1.87;;;3.20;99.90;;;;;;5016811;28;20185;-82
2023/02/19 02:01:36;;;;;;;5.80;2.13;;;3.20;99.90;;;;;;5016791;28;20252;-82
2023/02/19 02:04:03;;;;;;;4.60;2.80;;;3.20;99.90;;;;;;5034268;28;20255;-83
2023/02/19 02:06:40;;;;;;;1.10;1.10;;;3.10;99.90;;;;;;5034431;28;20185;-83
2023/02/19 02:11:51;;;;;;;3.30;1.90;;;3.20;99.90;;;;;;5019095;28;20175;-82
2023/02/19 02:14:22;;;;;;;4.67;2.30;;;3.10;99.90;;;;;;5016589;28;20229;-83
2023/02/19 02:17:07;;;;;;;3.90;1.97;;;3.10;99.90;;;;;;5016276;28;20177;-83
2023/02/19 02:19:47;;;;;;;6.63;2.13;;;3.00;99.90;;;;;;5033881;28;20164;-82
2023/02/19 02:22:36;;;;;;;4.50;1.83;;;3.00;99.90;;;;;;5016331;28;20696;-82
2023/02/19 02:25:07;;;;;;;4.97;3.20;;;2.90;99.90;;;;;;5015825;28;20224;-82
2023/02/19 02:27:54;;;;;;;2.57;2.37;;;3.00;99.90;;;;;;5032982;28;20216;-82
2023/02/19 02:30:30;;;;;;;2.60;1.43;;;2.90;99.90;;;;;;5017039;28;20270;-82
2023/02/19 02:33:11;;;;;;;1.30;1.20;;;2.90;99.90;;;;;;5033203;28;20164;-82
2023/02/19 02:35:47;;;;;;;1.60;1.50;;;3.00;99.90;;;;;;5033830;28;20238;-82
2023/02/19 02:38:14;;;;;;;2.67;2.33;;;2.90;99.90;;;;;;5016097;28;20539;-83
2023/02/19 02:40:42;;;;;;;2.20;2.07;;;2.90;99.90;;;;;;5033778;28;20220;-83
2023/02/19 02:43:08;;;;;;;1.67;1.50;;;2.90;99.90;;;;;;5032869;28;20698;-83
2023/02/19 02:45:34;;;;;;;2.73;1.90;;;2.90;99.90;;;;;;5031256;28;20228;-83
2023/02/19 02:48:11;;;;;;;1.00;1.00;;;2.90;99.90;;;;;;5033317;28;20685;-83
2023/02/19 02:50:46;;;;;;;1.80;1.70;;;2.90;99.90;;;;;;5033335;28;20556;-83
2023/02/19 02:56:05;;;;;;;4.33;1.97;;;3.00;99.90;;;;;;5032018;28;20250;-83
2023/02/19 02:58:32;;;;;;;1.63;1.53;;;3.00;99.90;;;;;;5033260;28;20646;-82
2023/02/19 03:04:02;;;;;;;9.37;2.57;;;3.00;99.90;;;;;;5032933;28;20199;-83
2023/02/19 03:06:32;;;;;;;3.77;1.93;;;2.90;99.90;;;;;;5033422;28;20171;-83
2023/02/19 03:09:06;;;;;;;4.47;2.17;;;2.90;99.90;;;;;;5015279;28;20234;-83
2023/02/19 03:20:09;;;;;;;5.83;2.00;;;2.90;99.90;;;;;;5033070;28;20167;-83
2023/02/19 03:22:37;;;;;;;1.50;1.40;;;2.90;99.90;;;;;;5033022;28;20221;-82
2023/02/19 03:28:12;;;;;;;1.43;1.33;;;2.90;99.90;;;;;;5013118;28;20576;-83
2023/02/19 03:30:43;;;;;;;2.10;1.33;;;2.90;99.90;;;;;;5012103;28;20223;-83
2023/02/19 03:33:13;;;;;;;2.07;1.47;;;2.80;99.90;;;;;;5012323;28;20188;-83
2023/02/19 03:35:55;;;;;;;2.03;1.37;;;2.80;99.90;;;;;;5013350;28;20261;-83
2023/02/19 03:38:41;;;;;;;2.67;1.73;;;2.80;99.90;;;;;;5012116;28;20632;-83
2023/02/19 03:41:54;;;;;;;2.43;1.47;;;2.80;99.90;;;;;;5013206;28;20169;-83
2023/02/19 03:44:39;;;;;;;1.40;1.30;;;2.90;99.90;;;;;;4990334;28;20193;-82
2023/02/19 03:47:26;;;;;;;2.30;1.67;;;2.80;99.90;;;;;;5017404;28;20624;-82
2023/02/19 03:50:15;;;;;;;3.07;1.97;;;2.80;99.90;;;;;;5016009;28;20209;-83
2023/02/19 03:52:57;;;;;;;2.17;1.70;;;2.80;99.90;;;;;;5016999;28;20228;-83
2023/02/19 03:55:28;;;;;;;4.43;2.47;;;2.80;99.90;;;;;;5015858;28;20684;-83
2023/02/19 03:58:15;;;;;;;2.47;1.60;;;2.80;99.90;;;;;;5017155;28;20169;-83
2023/02/19 04:01:03;;;;;;;1.83;1.67;;;2.80;99.90;;;;;;5015823;28;20205;-83
2023/02/19 04:03:38;;;;;;;2.40;1.90;;;2.80;99.90;;;;;;5016768;28;20180;-83
2023/02/19 04:06:10;;;;;;;3.87;2.07;;;2.80;99.90;;;;;;5015418;28;20177;-83
2023/02/19 04:08:37;;;;;;;2.30;1.93;;;2.80;99.90;;;;;;5015650;28;20209;-83
2023/02/19 04:11:04;;;;;;;2.77;2.20;;;2.80;99.90;;;;;;5012469;28;20669;-83
2023/02/19 04:13:40;;;;;;;1.30;1.20;;;2.90;99.90;;;;;;5015581;28;20200;-82
2023/02/19 04:16:10;;;;;;;2.77;2.17;;;2.80;99.90;;;;;;5016456;28;20278;-83
2023/02/19 04:18:39;;;;;;;3.20;1.60;;;2.90;99.90;;;;;;5016665;28;20185;-82
2023/02/19 04:21:06;;;;;;;4.13;2.60;;;2.80;99.90;;;;;;5016101;28;20187;-84
2023/02/19 04:23:41;;;;;;;5.17;2.53;;;2.80;99.90;;;;;;5015394;28;20189;-82
2023/02/19 04:26:08;;;;;;;8.83;1.83;;;2.90;99.90;;;;;;5026728;28;20226;-83
2023/02/19 04:28:34;;;;;;;3.43;3.23;;;2.80;99.90;;;;;;5018212;28;20312;-83
2023/02/19 04:31:01;;;;;;;1.53;1.40;;;2.80;99.90;;;;;;5018846;28;20200;-83
2023/02/19 04:33:26;;;;;;;2.67;2.17;;;2.80;99.90;;;;;;5018241;28;20184;-83
2023/02/19 04:35:52;;;;;;;1.70;1.60;;;2.80;99.90;;;;;;5018382;28;20509;-83
2023/02/19 04:38:17;;;;;;;3.20;2.30;;;2.80;99.90;;;;;;5035612;28;20188;-83
2023/02/19 04:40:43;;;;;;;2.87;2.10;;;2.70;99.90;;;;;;5018567;28;20192;-83
2023/02/19 04:43:09;;;;;;;6.10;2.27;;;2.70;99.90;;;;;;5033820;28;20196;-83
2023/02/19 04:45:37;;;;;;;1.53;1.43;;;2.70;99.90;;;;;;5018166;28;20283;-83
2023/02/19 04:48:02;;;;;;;2.60;1.90;;;2.60;99.90;;;;;;5035828;28;20665;-82
2023/02/19 04:50:28;;;;;;;3.57;1.77;;;2.70;99.90;;;;;;5001525;28;20279;-82
2023/02/19 04:52:54;;;;;;;3.07;1.70;;;2.60;99.90;;;;;;5018294;28;20222;-83
2023/02/19 04:55:19;;;;;;;3.03;1.40;;;2.60;99.90;;;;;;5016377;28;20559;-82
2023/02/19 04:57:45;;;;;;;1.70;1.60;;;2.60;99.90;;;;;;5034953;28;20621;-83
2023/02/19 05:00:12;;;;;;;2.23;2.03;;;2.60;99.90;;;;;;5017783;28;20184;-83
2023/02/19 05:02:37;;;;;;;2.03;1.20;;;2.60;99.90;;;;;;5035659;28;20255;-83
2023/02/19 05:05:03;;;;;;;1.40;1.30;;;2.70;99.90;;;;;;5035430;28;20274;-83
2023/02/19 05:07:29;;;;;;;1.27;1.17;;;2.60;99.90;;;;;;5017659;28;20204;-83
2023/02/19 05:09:54;;;;;;;0.93;0.93;;;2.60;99.90;;;;;;5017856;28;20187;-83
2023/02/19 05:12:21;;;;;;;1.83;1.53;;;2.60;99.90;;;;;;4999714;28;20188;-83
2023/02/19 05:14:46;;;;;;;1.00;1.00;;;2.60;99.90;;;;;;5028161;28;20185;-83
2023/02/19 05:17:12;;;;;;;1.67;1.57;;;2.60;99.90;;;;;;5008641;28;20214;-83
2023/02/19 05:19:38;;;;;;;0.77;0.77;;;2.60;99.90;;;;;;5022219;28;20189;-83
2023/02/19 05:22:03;;;;;;;2.90;1.37;;;2.60;99.90;;;;;;5010680;28;20299;-83
2023/02/19 05:24:30;;;;;;;1.43;1.33;;;2.60;99.90;;;;;;5008956;28;20189;-83
2023/02/19 05:26:56;;;;;;;1.20;1.20;;;2.60;99.90;;;;;;5006090;28;20244;-83
2023/02/19 05:29:21;;;;;;;1.77;1.67;;;2.70;99.90;;;;;;5005392;28;20229;-83
2023/02/19 05:31:47;;;;;;;1.07;1.07;;;2.70;99.90;;;;;;4980222;28;20185;-84
2023/02/19 05:34:13;;;;;;;1.60;1.00;;;2.70;99.90;;;;;;5002765;28;20653;-84
2023/02/19 05:36:40;;;;;;;0.90;0.90;;;2.70;99.90;;;;;;5024946;28;20427;-83
2023/02/19 05:39:06;;;;;;;0.77;0.77;;;2.60;99.90;;;;;;5003891;28;20192;-83
2023/02/19 05:41:32;;;;;;;1.10;1.10;;;2.60;99.90;;;;;;4999548;28;20189;-83
2023/02/19 05:43:58;;;;;;;0.90;0.90;;;2.50;99.90;;;;;;5007463;28;20258;-83
2023/02/19 05:46:26;;;;;;;1.67;1.07;;;2.50;99.90;;;;;;5005694;28;20180;-84
2023/02/19 05:48:52;;;;;;;0.80;0.80;;;2.50;99.90;;;;;;5019807;28;20204;-83
2023/02/19 05:51:20;;;;;;;0.80;0.80;;;2.50;99.90;;;;;;5034414;28;20200;-83
2023/02/19 05:53:46;;;;;;;0.67;0.67;;;2.50;99.90;;;;;;5016658;28;20181;-82
2023/02/19 05:56:36;;;;;;;1.00;1.00;;;2.50;99.90;;;;;;5017148;28;20180;-83
2023/02/19 05:59:06;;;;;;;0.77;0.77;;;2.50;99.90;;;;;;5022232;28;20642;-83
2023/02/19 06:01:34;;;;;;;1.00;1.00;;;2.50;99.90;;;;;;5031059;28;20175;-83
2023/02/19 06:03:59;;;;;;;0.73;0.73;;;2.50;99.90;;;;;;5034477;28;20660;-82
2023/02/19 06:06:26;;;;;;;11.13;1.10;;;3.00;99.90;;;;;;5016454;28;20250;-83
2023/02/19 06:08:51;;;;;;;2.10;1.07;;;2.60;99.90;;;;;;4996828;28;20203;-83
2023/02/19 06:11:18;;;;;;;0.90;0.90;;;2.50;99.90;;;;;;5014319;28;20523;-83
2023/02/19 06:13:43;;;;;;;5.00;1.67;;;2.50;99.90;;;;;;5014222;28;20247;-83
2023/02/19 06:16:09;;;;;;;1.43;1.30;;;2.40;99.90;;;;;;4980623;28;20681;-83
2023/02/19 06:18:35;;;;;;;2.63;1.10;;;2.40;99.90;;;;;;5014312;28;20230;-84
2023/02/19 06:21:02;;;;;;;0.93;0.93;;;2.30;99.90;;;;;;5008751;28;20184;-83
2023/02/19 06:23:28;;;;;;;2.43;1.10;;;2.30;99.90;;;;;;4997647;28;20227;-82
2023/02/19 06:26:03;;;;;;;1.60;0.97;;;2.30;99.90;;;;;;4996372;28;20260;-82
2023/02/19 06:28:28;;;;;;;0.83;0.83;;;2.20;99.90;;;;;;4996287;28;20291;-82
2023/02/19 06:30:54;;;;;;;1.13;1.13;;;2.30;99.90;;;;;;5014471;28;20593;-83
2023/02/19 06:33:19;;;;;;;0.87;0.87;;;2.20;99.90;;;;;;4996390;28;20215;-83
2023/02/19 06:35:45;;;;;;;4.50;1.37;;;2.30;99.90;;;;;;5013759;28;20521;-83
2023/02/19 06:38:11;;;;;;;0.83;0.83;;;2.30;99.90;;;;;;5018890;28;20588;-82
2023/02/19 06:40:36;;;;;;;1.63;1.40;;;2.30;99.90;;;;;;5015810;28;20222;-83
2023/02/19 06:43:02;;;;;;;5.73;1.73;;;2.30;99.90;;;;;;5033468;28;20265;-82
2023/02/19 06:45:28;;;;;;;6.13;1.20;;;2.30;99.90;;;;;;5015874;28;20262;-83
2023/02/19 06:47:53;;;;;;;4.53;1.23;;;2.30;99.90;;;;;;5033870;28;20735;-83
2023/02/19 06:50:19;;;;;;;0.93;0.93;;;2.30;99.90;;;;;;5033515;28;20238;-82
2023/02/19 06:52:44;;;;;;;1.00;1.00;;;2.30;99.90;;;;;;5033217;28;20181;-84
2023/02/19 06:55:10;;;;;;;1.20;1.10;;;2.20;99.90;;;;;;5016101;28;20223;-83
2023/02/19 06:57:36;;;;;;;2.57;1.03;;;2.20;99.90;;;;;;5015660;28;20212;-84
2023/02/19 07:00:02;;;;;;;1.17;1.17;;;2.20;99.90;;;;;;5023819;28;20188;-83
2023/02/19 07:02:29;;;;;;;1.37;1.27;;;2.30;99.90;;;;;;5019662;28;20223;-84
2023/02/19 07:04:54;;;;;;;0.97;0.97;;;2.30;99.90;;;;;;4987809;28;20216;-82
2023/02/19 07:07:20;;;;;;;1.77;1.07;;;2.40;99.90;;;;;;4998100;28;20192;-83
2023/02/19 07:09:45;;;;;;;2.30;1.63;;;2.30;99.90;;;;;;4998645;28;20207;-83
2023/02/19 07:12:11;;;;;;;3.07;2.60;;;2.30;99.90;;;;;;5032734;28;20180;-83
2023/02/19 07:14:37;;;;;;;1.23;1.23;;;2.40;99.90;;;;;;4995522;28;20288;-83
2023/02/19 07:17:03;;;;;;;5.40;1.50;;;2.40;99.90;;;;;;5014736;28;20212;-83
2023/02/19 07:19:28;;;;;;;0.90;0.90;;;2.40;99.90;;;;;;5013778;28;20184;-84
2023/02/19 07:21:54;;;;;;;1.80;1.20;;;2.30;99.90;;;;;;4991590;28;20551;-84
2023/02/19 07:24:21;;;;;;;1.80;1.60;;;2.30;99.90;;;;;;5003239;28;20203;-84
2023/02/19 07:26:46;;;;;;;2.27;1.97;;;2.30;99.90;;;;;;5022604;28;20243;-85
2023/02/19 07:29:12;;;;;;;4.27;1.97;;;2.40;99.90;;;;;;4986998;28;20209;-85
2023/02/19 07:31:38;;;;;;;1.23;1.13;;;2.40;99.90;;;;;;4997649;28;20287;-85
2023/02/19 07:34:05;;;;;;;3.07;2.30;;;2.50;99.90;;;;;;4998161;28;20185;-84
2023/02/19 07:36:31;;;;;;;1.67;1.53;;;2.50;99.90;;;;;;4986270;28;20287;-84
2023/02/19 07:38:58;;;;;;;3.87;2.43;;;2.50;99.90;;;;;;4994813;28;20281;-84
2023/02/19 07:41:25;;;;;;;6.33;1.57;;;2.60;99.90;;;;;;5012364;28;20239;-85
2023/02/19 07:43:51;;;;;;;3.53;1.90;;;2.60;99.90;;;;;;4994419;28;20189;-85
2023/02/19 07:46:16;;;;;;;13.23;2.30;;;2.60;99.90;;;;;;5005397;28;20539;-83
2023/02/19 07:48:43;;;;;;;2.67;2.00;;;2.70;99.90;;;;;;4994179;28;20208;-86
2023/02/19 07:51:18;;;;;;;2.37;1.40;;;2.80;99.90;;;;;;5013085;28;20193;-84
2023/02/19 07:53:45;;;;;;;2.07;1.87;;;2.80;99.90;;;;;;5004380;28;20279;-84
2023/02/19 07:56:11;;;;;;;3.43;2.07;;;2.80;99.90;;;;;;4996123;28;20196;-84
2023/02/19 07:58:38;;;;;;;4.17;2.37;;;2.80;99.90;;;;;;5000524;28;20193;-84
2023/02/19 08:01:14;;;;;;;6.23;2.97;;;2.90;99.90;;;;;;5009335;28;20275;-85
2023/02/19 08:03:40;;;;;;;2.23;1.97;;;2.90;99.90;;;;;;4995886;28;20200;-84
2023/02/19 08:06:07;;;;;;;4.37;2.10;;;2.80;99.90;;;;;;5012356;28;20281;-84
2023/02/19 08:08:32;;;;;;;2.30;1.80;;;3.00;99.90;;;;;;5011598;28;20208;-85
2023/02/19 08:13:47;;;;;;;2.33;1.67;;;2.80;99.90;;;;;;5020704;28;20727;-84
2023/02/19 08:16:16;;;;;;;3.30;1.73;;;3.00;99.90;;;;;;5009698;28;20218;-83
2023/02/19 08:18:43;;;;;;;2.97;2.67;;;3.00;99.90;;;;;;5006707;28;20193;-84
2023/02/19 08:21:09;;;;;;;3.70;2.20;;;3.00;99.90;;;;;;5009268;28;20191;-83
2023/02/19 08:23:35;;;;;;;2.63;1.93;;;3.00;99.90;;;;;;5003821;28;20280;-84
2023/02/19 08:26:01;;;;;;;4.17;2.20;;;3.10;99.90;;;;;;4993578;28;20240;-83
2023/02/19 08:28:28;;;;;;;3.03;1.27;;;3.20;99.90;;;;;;5025466;28;20204;-83
2023/02/19 08:30:59;;;;;;;1.97;1.60;;;3.30;99.90;;;;;;4998271;28;20225;-84
2023/02/19 08:33:25;;;;;;;1.63;1.53;;;3.30;99.90;;;;;;5021197;28;20189;-83
2023/02/19 08:35:51;;;;;;;7.90;3.30;;;3.30;99.90;;;;;;5006722;28;20189;-84
2023/02/19 08:38:16;;;;;;;4.23;2.23;;;3.30;99.90;;;;;;5004344;28;20228;-84
2023/02/19 08:40:42;;;;;;;2.33;1.80;;;3.40;99.90;;;;;;5002190;28;20220;-84
2023/02/19 08:43:10;;;;;;;10.57;2.47;;;3.40;99.90;;;;;;4998466;28;20193;-84
2023/02/19 08:45:37;;;;;;;2.03;1.53;;;3.50;99.90;;;;;;5013306;28;20185;-87
2023/02/19 08:48:04;;;;;;;2.67;2.37;;;3.50;99.90;;;;;;5026873;28;20680;-84
2023/02/19 08:50:30;;;;;;;1.77;1.50;;;3.50;99.90;;;;;;5020044;28;20202;-82
2023/02/19 08:52:58;;;;;;;2.73;1.63;;;3.50;99.90;;;;;;5005557;28;20361;-82
2023/02/19 08:55:24;;;;;;;4.03;2.07;;;3.60;99.90;;;;;;5008740;28;20200;-82
2023/02/19 08:57:49;;;;;;;2.00;1.73;;;3.60;99.90;;;;;;5011673;28;20200;-82
2023/02/19 09:00:15;;;;;;;3.63;2.10;;;3.60;99.90;;;;;;4997903;28;20308;-82
2023/02/19 09:02:41;;;;;;;1.63;1.37;;;3.70;99.90;;;;;;4992391;28;20285;-81
2023/02/19 09:05:07;;;;;;;6.63;2.67;;;3.70;99.90;;;;;;5021018;28;20326;-85
2023/02/19 09:07:33;;;;;;;1.93;1.50;;;3.70;99.90;;;;;;4993049;28;20239;-83
2023/02/19 09:10:00;;;;;;;5.20;1.70;;;3.60;99.90;;;;;;5004054;28;20196;-84
2023/02/19 09:12:26;;;;;;;3.40;2.03;;;3.70;99.90;;;;;;5026595;28;20203;-84
2023/02/19 09:14:51;;;;;;;1.40;1.30;;;3.70;99.90;;;;;;5006502;28;20184;-85
2023/02/19 09:17:17;;;;;;;1.50;1.33;;;3.60;99.90;;;;;;5008211;28;20334;-84
2023/02/19 09:19:43;;;;;;;2.40;1.43;;;3.60;99.90;;;;;;5029714;28;20184;-84
2023/02/19 09:22:09;;;;;;;4.43;2.40;;;3.60;99.90;;;;;;5004511;28;20193;-85
2023/02/19 09:24:34;;;;;;;1.67;1.27;;;3.70;99.90;;;;;;5029248;28;20230;-83
2023/02/19 09:27:00;;;;;;;3.40;2.37;;;3.70;99.90;;;;;;5031912;28;20344;-83
2023/02/19 09:29:27;;;;;;;0.77;0.77;;;3.70;99.90;;;;;;4996552;28;20296;-82
2023/02/19 09:31:57;;;;;;;1.20;1.10;;;3.70;99.90;;;;;;5013024;28;20196;-83
2023/02/19 09:34:24;;;;;;;2.13;1.43;;;3.70;99.90;;;;;;4984324;28;20231;-82
2023/02/19 09:36:51;;;;;;;3.37;1.40;;;3.80;99.90;;;;;;5014015;28;20203;-82
2023/02/19 09:39:17;;;;;;;2.97;1.53;;;3.80;99.90;;;;;;5016415;28;21085;-83
2023/02/19 09:41:46;;;;;;;1.17;1.07;;;3.80;99.90;;;;;;5014993;28;20267;-83
2023/02/19 09:44:39;;;;;;;5.30;1.43;;;3.90;99.90;;;;;;4990830;28;20537;-83
2023/02/19 09:47:22;;;;;;;3.13;1.10;;;4.00;99.90;;;;;;5028714;28;20196;-82
2023/02/19 09:49:53;;;;;;;4.50;1.63;;;4.00;99.90;;;;;;5014730;28;20200;-83
2023/02/19 09:52:39;;;;;;;2.37;1.30;;;4.00;99.90;;;;;;5003120;28;20184;-84
2023/02/19 09:55:27;;;;;;;1.93;1.27;;;4.10;99.90;;;;;;5004653;28;20241;-84
2023/02/19 09:57:53;;;;;;;5.60;1.50;;;4.10;99.90;;;;;;4997231;28;20268;-84
2023/02/19 10:00:23;;;;;;;2.93;1.43;;;4.10;99.90;;;;;;5014028;28;20186;-84
2023/02/19 10:03:18;;;;;;;2.77;1.67;;;4.10;99.90;;;;;;5017478;28;20187;-84
2023/02/19 10:05:43;;;;;;;2.83;1.50;;;4.10;99.90;;;;;;5019345;28;20200;-84
2023/02/19 10:08:18;;;;;;;1.80;1.33;;;4.20;99.90;;;;;;5004914;28;20234;-82
2023/02/19 10:10:44;;;;;;;1.57;1.20;;;4.30;99.90;;;;;;5013977;28;20665;-83
2023/02/19 10:13:35;;;;;;;1.20;1.10;;;4.30;99.90;;;;;;5001352;28;20192;-84
2023/02/19 10:16:03;;;;;;;1.63;1.40;;;4.40;99.90;;;;;;5001983;28;20191;-84
2023/02/19 10:18:38;;;;;;;1.93;1.40;;;4.40;99.90;;;;;;5015087;28;20185;-84
2023/02/19 10:21:04;;;;;;;2.23;1.63;;;4.50;99.90;;;;;;5011816;28;20311;-83
2023/02/19 10:23:30;;;;;;;1.47;1.13;;;4.50;99.90;;;;;;5023222;28;20704;-84
2023/02/19 10:25:57;;;;;;;1.70;1.60;;;4.50;99.90;;;;;;4989387;28;20281;-84
2023/02/19 10:28:29;;;;;;;1.30;1.20;;;4.50;99.90;;;;;;4993658;28;20231;-84
2023/02/19 10:30:57;;;;;;;2.33;1.30;;;4.60;99.90;;;;;;5006739;28;20188;-84
2023/02/19 10:33:23;;;;;;;3.70;1.77;;;4.60;99.90;;;;;;5004808;28;20189;-84
2023/02/19 10:35:54;;;;;;;2.03;1.80;;;4.70;99.90;;;;;;4991269;28;20734;-86
2023/02/19 10:38:37;;;;;;;2.00;1.10;;;4.80;99.90;;;;;;5013702;28;20189;-83
2023/02/19 10:41:19;;;;;;;2.50;1.67;;;4.80;99.90;;;;;;5003147;28;20191;-85
2023/02/19 10:44:09;;;;;;;2.50;1.40;;;4.80;99.90;;;;;;5018305;28;20690;-82
2023/02/19 10:46:40;;;;;;;2.43;2.00;;;4.70;99.90;;;;;;5003991;28;20196;-85
2023/02/19 10:49:26;;;;;;;0.87;0.87;;;4.70;99.90;;;;;;5026591;28;20232;-83
2023/02/19 10:51:54;;;;;;;3.40;1.60;;;4.70;99.90;;;;;;5014782;28;20215;-85
2023/02/19 10:54:34;;;;;;;2.30;1.17;;;4.60;99.90;;;;;;4997357;28;20228;-84
2023/02/19 10:57:14;;;;;;;1.17;1.00;;;4.50;99.90;;;;;;5013351;28;20267;-84
2023/02/19 10:59:57;;;;;;;4.17;1.40;;;4.50;99.90;;;;;;5013877;28;20255;-84
2023/02/19 11:02:25;;;;;;;1.80;1.30;;;4.60;99.90;;;;;;5008412;28;20185;-84
2023/02/19 11:05:13;;;;;;;1.00;1.00;;;4.60;99.90;;;;;;5012645;28;20193;-85
2023/02/19 11:07:54;;;;;;;1.60;1.43;;;4.60;99.90;;;;;;5014539;28;20582;-84
2023/02/19 11:10:38;;;;;;;8.30;1.47;;;4.70;99.90;;;;;;5014224;28;20311;-84
2023/02/19 11:13:12;;;;;;;0.80;0.80;;;4.70;99.90;;;;;;5003215;28;20191;-83
2023/02/19 11:15:39;;;;;;;3.17;2.23;;;4.80;99.90;;;;;;5021764;28;20306;-84
2023/02/19 11:18:10;;;;;;;2.37;1.73;;;4.80;99.90;;;;;;4992432;28;20195;-85
2023/02/19 11:20:37;;;;;;;1.10;1.10;;;4.70;99.90;;;;;;5020126;28;20176;-85
2023/02/19 11:23:14;;;;;;;3.03;2.73;;;4.60;99.90;;;;;;5005165;28;20649;-85
2023/02/19 11:25:48;;;;;;;1.70;1.10;;;4.70;99.90;;;;;;5007707;28;20244;-82
2023/02/19 11:28:29;;;;;;;3.83;1.70;;;4.70;99.90;;;;;;5004891;28;20203;-90
2023/02/19 11:31:14;;;;;;;4.63;1.90;;;4.60;99.90;;;;;;5003167;28;20764;-83
2023/02/19 11:33:44;;;;;;;3.37;1.33;;;4.60;99.90;;;;;;5002854;28;20660;-84
2023/02/19 11:36:28;;;;;;;5.20;1.87;;;4.60;99.90;;;;;;5004408;28;20188;-83
2023/02/19 11:38:56;;;;;;;1.93;1.27;;;4.70;99.90;;;;;;4998566;28;20192;-85
2023/02/19 11:41:45;;;;;;;3.73;1.83;;;4.70;99.90;;;;;;4990834;28;20547;-82
2023/02/19 11:44:42;;;;;;;2.20;1.70;;;4.70;99.90;;;;;;5004496;28;20695;-82
2023/02/19 11:47:11;;;;;;;0.97;0.97;;;4.80;99.90;;;;;;5020169;28;20235;-83
2023/02/19 11:49:49;;;;;;;1.20;1.10;;;4.80;99.90;;;;;;5020316;28;20213;-83
2023/02/19 11:52:40;;;;;;;1.57;1.30;;;4.70;99.90;;;;;;5008157;28;20199;-84
2023/02/19 11:55:13;;;;;;;2.40;1.77;;;4.70;99.90;;;;;;4976596;28;20208;-84
2023/02/19 11:58:00;;;;;;;1.70;1.43;;;4.80;99.90;;;;;;5001653;28;20192;-84
2023/02/19 12:00:29;;;;;;;5.80;1.97;;;5.00;99.90;;;;;;5002593;28;20306;-85
2023/02/19 12:03:00;;;;;;;12.17;3.17;;;5.00;99.90;;;;;;5024726;28;20238;-85
2023/02/19 12:06:07;;;;;;;2.53;1.70;;;5.00;99.90;;;;;;5006589;28;20187;-86
2023/02/19 12:09:01;;;;;;;1.80;1.60;;;5.10;99.90;;;;;;5012825;28;20262;-84
2023/02/19 12:11:30;;;;;;;5.60;1.53;;;5.20;99.90;;;;;;5008380;28;20637;-83
2023/02/19 12:14:23;;;;;;;2.33;1.73;;;5.40;99.90;;;;;;5021745;28;20181;-83
2023/02/19 12:17:22;;;;;;;2.77;2.27;;;5.40;99.90;;;;;;5025626;28;20662;-83
2023/02/19 12:20:12;;;;;;;2.37;1.60;;;5.30;99.90;;;;;;5007252;28;20595;-83
2023/02/19 12:23:06;;;;;;;3.40;2.53;;;5.40;99.90;;;;;;5003367;28;20196;-83
2023/02/19 12:25:41;;;;;;;4.80;2.07;;;5.50;99.90;;;;;;4998606;28;20312;-83
2023/02/19 12:28:31;;;;;;;1.30;1.30;;;5.40;99.90;;;;;;5005145;28;20216;-83
2023/02/19 12:31:21;;;;;;;3.43;2.40;;;5.30;99.90;;;;;;5002240;28;20228;-84
2023/02/19 12:34:20;;;;;;;5.70;2.10;;;5.40;99.90;;;;;;5001386;28;20195;-83
2023/02/19 12:36:55;;;;;;;3.77;1.90;;;5.30;99.90;;;;;;5023773;28;20184;-83
2023/02/19 12:39:49;;;;;;;2.43;1.43;;;5.50;99.90;;;;;;5010432;28;20211;-83
2023/02/19 12:42:41;;;;;;;5.80;2.33;;;5.50;99.90;;;;;;5022587;28;20665;-84
2023/02/19 12:45:23;;;;;;;3.53;2.23;;;5.60;99.90;;;;;;5022746;28;20639;-83
2023/02/19 12:48:17;;;;;;;4.97;2.73;;;5.30;99.90;;;;;;5008782;28;20629;-84
2023/02/19 12:50:46;;;;;;;2.90;2.13;;;5.20;99.90;;;;;;5024556;28;20272;-84
2023/02/19 12:53:36;;;;;;;4.50;1.33;;;5.30;99.90;;;;;;5004031;28;20201;-83
2023/02/19 12:56:12;;;;;;;5.77;2.73;;;5.40;99.90;;;;;;5026042;28;20181;-84
2023/02/19 12:58:47;;;;;;;9.40;2.70;;;5.30;99.90;;;;;;5023931;28;20234;-83
2023/02/19 13:01:27;;;;;;;4.97;2.00;;;5.30;99.90;;;;;;5017624;28;20176;-83
2023/02/19 13:04:15;;;;;;;4.53;1.90;;;5.40;99.90;;;;;;5010235;28;20193;-82
2023/02/19 13:06:57;;;;;;;3.87;2.10;;;5.40;99.90;;;;;;5015293;28;20193;-82
2023/02/19 13:09:34;;;;;;;4.80;2.50;;;5.30;99.90;;;;;;5000504;28;20732;-85
2023/02/19 13:12:19;;;;;;;2.73;1.63;;;5.10;99.90;;;;;;5009558;28;20184;-85
2023/02/19 13:15:04;;;;;;;2.43;1.87;;;5.10;98.40;;;;;;5018947;28;20208;-84
2023/02/19 13:17:44;;;;;;;2.40;1.70;;;5.20;98.70;;;;;;5015949;28;20177;-83
2023/02/19 13:20:23;;;;;;;3.23;2.23;;;5.40;98.30;;;;;;4995029;28;20292;-83
2023/02/19 13:26:15;;;;;;;7.50;2.17;;;6.10;96.80;;;;;;5013261;28;20336;-84
2023/02/19 13:29:08;;;;;;;2.20;1.30;;;6.10;95.10;;;;;;5003405;28;20220;-83
2023/02/19 13:31:53;;;;;;;2.23;1.70;;;6.40;91.20;;;;;;5000987;28;20270;-83
2023/02/19 13:34:44;;;;;;;3.30;1.90;;;4.80;90.20;;;;;;5003579;28;20196;-83
2023/02/19 13:37:10;;;;;;;4.77;2.13;;;5.90;92.20;;;;;;5019215;28;20653;-85
2023/02/19 13:39:44;;;;;;;3.03;2.23;;;5.80;92.40;;;;;;4988981;28;20226;-83
2023/02/19 13:42:25;;;;;;;3.87;2.13;;;5.80;91.90;;;;;;5000830;28;20184;-83
2023/02/19 13:44:52;;;;;;;3.90;1.80;;;6.00;91.60;;;;;;5000250;28;20227;-84
2023/02/19 13:47:48;;;;;;;6.40;2.23;;;6.50;91.90;;;;;;4999841;28;20267;-84